Logtown, Louisiana
Current Conditions -  °F | °C
As of 8:53 PM on Sunday 23 Nov 2014 (Local Time) from KMLU Reporting Station
Clear Clear  
Wind Chill: 64°   Ceiling: Unl
Heat Index: 64°   Visibility: 10mi
Dew Point: 58°   Wind: 14mph
Humidity: 80%   Direction: 200°SSW
Pressure: 29.56"   Gusts: 22mph
Location:  32.3976°N, 92.0551°W
Report Text: KMLU 240253Z 20012G19KT 10SM CLR 18/14 A2956 RMK AO2 SLP010 T01780144 52022
Loading
Personal Weather Stations






























Interactive Weather Map New forecast layout! Learn more

10-Day Weather Forecast

Advertisements
Track Severe Weather on mobile